Time;durP1;ratioP1;P1;durP2;ratioP2;P2;SDS_P1;SDS_P2;PMS_P1;PMS_P2;Temp;Humidity;BMP_temperature;BMP_pressure;BME280_temperature;BME280_humidity;BME280_pressure;Samples;Min_cycle;Max_cycle;Signal;HPM_P1;HPM_P2
2022/02/15 00:00:56;;;;;;;;;;;4.30;99.90;;;;;;5071139;28;20261;-73
2022/02/15 00:03:21;;;;;;;;;;;4.30;99.90;;;;;;5070826;28;19948;-73
2022/02/15 00:05:47;;;;;;;;;;;4.40;99.90;;;;;;5071084;28;20419;-74
2022/02/15 00:08:12;;;;;;;;;;;4.40;99.90;;;;;;5071124;28;19919;-73
2022/02/15 00:10:39;;;;;;;;;;;4.30;99.90;;;;;;5070994;28;19938;-74
2022/02/15 00:13:05;;;;;;;;;;;4.20;99.90;;;;;;5070280;28;19908;-74
2022/02/15 00:15:30;;;;;;;;;;;4.20;99.90;;;;;;5071019;28;20470;-75
2022/02/15 00:17:56;;;;;;;;;;;4.20;99.90;;;;;;5070856;28;20324;-73
2022/02/15 00:20:22;;;;;;;;;;;4.30;99.90;;;;;;5071215;28;19923;-73
2022/02/15 00:22:47;;;;;;;;;;;4.30;99.90;;;;;;5070630;28;20365;-73
2022/02/15 00:25:13;;;;;;;;;;;4.30;99.90;;;;;;5070713;28;19908;-74
2022/02/15 00:27:39;;;;;;;;;;;4.30;99.90;;;;;;5070182;28;19913;-74
2022/02/15 00:30:05;;;;;;;;;;;4.30;99.90;;;;;;5070835;28;19916;-74
2022/02/15 00:32:30;;;;;;;;;;;4.30;99.90;;;;;;5071002;28;19908;-73
2022/02/15 00:34:56;;;;;;;;;;;4.30;99.90;;;;;;5070560;28;20007;-73
2022/02/15 00:37:21;;;;;;;;;;;4.30;99.90;;;;;;5070812;28;19909;-74
2022/02/15 00:39:47;;;;;;;;;;;4.30;99.90;;;;;;5070799;28;19916;-74
2022/02/15 00:42:14;;;;;;;;;;;4.20;99.90;;;;;;5070867;28;20297;-73
2022/02/15 00:44:40;;;;;;;;;;;4.30;99.90;;;;;;5070471;28;19912;-74
2022/02/15 00:47:05;;;;;;;;;;;4.30;99.90;;;;;;5070634;28;20434;-74
2022/02/15 00:49:31;;;;;;;;;;;4.20;99.90;;;;;;5070811;28;19915;-73
2022/02/15 00:51:56;;;;;;;;;;;4.10;99.90;;;;;;5070587;28;19954;-73
2022/02/15 00:54:22;;;;;;;;;;;4.10;99.90;;;;;;5070284;28;20293;-74
2022/02/15 00:56:47;;;;;;;;;;;4.10;99.90;;;;;;5070041;28;20272;-73
2022/02/15 00:59:13;;;;;;;;;;;4.10;99.90;;;;;;5070569;28;20053;-73
2022/02/15 01:01:39;;;;;;;;;;;4.00;99.90;;;;;;5070650;28;19916;-73
2022/02/15 01:04:05;;;;;;;;;;;3.90;99.90;;;;;;5070442;28;19981;-73
2022/02/15 01:06:30;;;;;;;;;;;3.80;99.90;;;;;;5072881;28;20486;-73
2022/02/15 01:08:56;;;;;;;;;;;3.80;99.90;;;;;;5074273;28;19908;-73
2022/02/15 01:11:21;;;;;;;;;;;3.80;99.90;;;;;;5074020;28;20321;-73
2022/02/15 01:13:47;;;;;;;;;;;3.70;99.90;;;;;;5073981;28;19912;-73
2022/02/15 01:16:12;;;;;;;;;;;3.70;99.90;;;;;;5074196;28;19916;-73
2022/02/15 01:18:38;;;;;;;;;;;3.60;99.90;;;;;;5074120;28;20324;-74
2022/02/15 01:21:04;;;;;;;;;;;3.50;99.90;;;;;;5074090;28;19924;-73
2022/02/15 01:23:29;;;;;;;;;;;3.60;99.90;;;;;;5073556;28;19909;-73
2022/02/15 01:25:55;;;;;;;;;;;3.60;99.90;;;;;;5073832;28;19913;-73
2022/02/15 01:28:21;;;;;;;;;;;3.50;99.90;;;;;;5073653;28;20404;-74
2022/02/15 01:30:47;;;;;;;;;;;3.40;99.90;;;;;;5074176;28;19909;-73
2022/02/15 01:33:12;;;;;;;;;;;3.30;99.90;;;;;;5073492;28;19908;-73
2022/02/15 01:35:38;;;;;;;;;;;3.40;99.90;;;;;;5073814;28;19909;-73
2022/02/15 01:38:04;;;;;;;;;;;3.30;99.90;;;;;;5073513;28;19958;-73
2022/02/15 01:40:30;;;;;;;;;;;3.20;99.90;;;;;;5073661;28;19909;-73
2022/02/15 01:42:55;;;;;;;;;;;3.20;99.90;;;;;;5073539;28;19952;-73
2022/02/15 01:45:21;;;;;;;;;;;3.30;99.90;;;;;;5072299;28;19909;-74
2022/02/15 01:47:47;;;;;;;;;;;3.30;99.90;;;;;;5072924;28;20403;-73
2022/02/15 01:50:13;;;;;;;;;;;3.40;99.90;;;;;;5073654;28;20434;-73
2022/02/15 01:52:38;;;;;;;;;;;3.20;99.90;;;;;;5073363;28;19908;-73
2022/02/15 01:55:05;;;;;;;;;;;3.30;99.90;;;;;;5073072;28;19961;-73
2022/02/15 01:57:31;;;;;;;;;;;3.20;99.90;;;;;;5072978;28;20278;-73
2022/02/15 01:59:57;;;;;;;;;;;3.30;99.90;;;;;;5073134;28;19919;-73
2022/02/15 02:02:23;;;;;;;;;;;3.30;99.90;;;;;;5072236;28;20272;-73
2022/02/15 02:07:33;;;;;;;;;;;3.20;99.90;;;;;;5068082;28;19927;-73
2022/02/15 02:09:58;;;;;;;;;;;3.10;99.90;;;;;;5073302;28;19916;-73
2022/02/15 02:12:24;;;;;;;;;;;3.00;99.90;;;;;;5071380;28;19995;-74
2022/02/15 02:15:00;;;;;;;;;;;2.90;99.90;;;;;;5072847;28;19935;-73
2022/02/15 02:17:26;;;;;;;;;;;2.80;99.90;;;;;;5072677;28;19995;-73
2022/02/15 02:19:53;;;;;;;;;;;2.90;99.90;;;;;;5073323;28;19908;-73
2022/02/15 02:22:19;;;;;;;;;;;3.00;99.90;;;;;;5071524;28;19915;-74
2022/02/15 02:24:45;;;;;;;;;;;2.90;99.90;;;;;;5071340;28;20326;-73
2022/02/15 02:27:15;;;;;;;;;;;2.80;99.90;;;;;;5072698;28;19916;-73
2022/02/15 02:29:41;;;;;;;;;;;2.60;99.90;;;;;;5072928;28;19908;-73
2022/02/15 02:32:06;;;;;;;;;;;2.70;99.90;;;;;;5072584;28;20297;-73
2022/02/15 02:34:33;;;;;;;;;;;2.90;99.90;;;;;;5072314;28;20293;-73
2022/02/15 02:36:59;;;;;;;;;;;3.20;99.90;;;;;;5072488;28;19912;-73
2022/02/15 02:39:24;;;;;;;;;;;3.40;99.90;;;;;;5069967;28;19913;-73
2022/02/15 02:41:50;;;;;;;;;;;3.50;99.90;;;;;;5072006;28;19912;-72
2022/02/15 02:44:15;;;;;;;;;;;3.60;99.90;;;;;;5072405;28;20106;-73
2022/02/15 02:46:41;;;;;;;;;;;3.70;99.90;;;;;;5071022;28;19916;-73
2022/02/15 02:49:06;;;;;;;;;;;3.70;99.90;;;;;;5072204;28;19931;-73
2022/02/15 02:51:32;;;;;;;;;;;3.70;99.90;;;;;;5072087;28;20369;-74
2022/02/15 02:53:57;;;;;;;;;;;3.60;99.90;;;;;;5071975;28;20285;-73
2022/02/15 02:56:23;;;;;;;;;;;3.60;99.90;;;;;;5072431;28;20003;-73
2022/02/15 02:58:48;;;;;;;;;;;3.50;99.90;;;;;;5072186;28;19913;-73
2022/02/15 03:01:14;;;;;;;;;;;3.50;99.90;;;;;;5071955;28;19938;-73
2022/02/15 03:03:39;;;;;;;;;;;3.60;99.90;;;;;;5071758;28;20270;-73
2022/02/15 03:06:06;;;;;;;;;;;3.70;99.90;;;;;;5071909;28;20011;-73
2022/02/15 03:08:31;;;;;;;;;;;3.70;99.90;;;;;;5071857;28;19985;-73
2022/02/15 03:10:59;;;;;;;;;;;3.60;99.90;;;;;;5069344;28;19963;-73
2022/02/15 03:13:25;;;;;;;;;;;3.70;99.90;;;;;;5074103;28;20197;-73
2022/02/15 03:15:50;;;;;;;;;;;3.60;99.90;;;;;;5073446;28;20354;-72
2022/02/15 03:18:16;;;;;;;;;;;3.60;99.90;;;;;;5072597;28;19915;-73
2022/02/15 03:20:41;;;;;;;;;;;3.60;99.90;;;;;;5071764;28;19908;-73
2022/02/15 03:23:07;;;;;;;;;;;3.60;99.90;;;;;;5071139;28;20427;-73
2022/02/15 03:25:32;;;;;;;;;;;3.60;99.90;;;;;;5071760;28;20265;-72
2022/02/15 03:27:58;;;;;;;;;;;3.60;99.90;;;;;;5069657;28;20371;-73
2022/02/15 03:30:23;;;;;;;;;;;3.60;99.90;;;;;;5071598;28;19913;-74
2022/02/15 03:32:49;;;;;;;;;;;3.70;99.90;;;;;;5071256;28;20329;-73
2022/02/15 03:35:16;;;;;;;;;;;3.60;99.90;;;;;;5071221;28;19937;-73
2022/02/15 03:37:42;;;;;;;;;;;3.70;99.90;;;;;;5071360;28;19909;-73
2022/02/15 03:40:07;;;;;;;;;;;3.60;99.90;;;;;;5066461;28;19916;-74
2022/02/15 03:45:17;;;;;;;;;;;3.80;99.90;;;;;;5071545;28;19923;-73
2022/02/15 03:47:42;;;;;;;;;;;3.90;99.90;;;;;;5069941;28;20326;-73
2022/02/15 03:50:08;;;;;;;;;;;3.90;99.90;;;;;;5071326;28;19908;-73
2022/02/15 03:52:34;;;;;;;;;;;3.90;99.90;;;;;;5071235;28;19965;-74
2022/02/15 03:54:59;;;;;;;;;;;3.90;99.90;;;;;;5071385;28;19909;-73
2022/02/15 03:57:24;;;;;;;;;;;3.90;99.90;;;;;;5071269;28;19908;-73
2022/02/15 03:59:50;;;;;;;;;;;3.90;99.90;;;;;;5070983;28;20384;-73
2022/02/15 04:02:15;;;;;;;;;;;3.90;99.90;;;;;;5070977;28;19908;-73
2022/02/15 04:04:41;;;;;;;;;;;3.80;99.90;;;;;;5070887;28;19913;-73
2022/02/15 04:07:06;;;;;;;;;;;3.70;99.90;;;;;;5070916;28;19913;-73
2022/02/15 04:09:32;;;;;;;;;;;3.70;99.90;;;;;;5068370;28;19908;-75
2022/02/15 04:11:58;;;;;;;;;;;3.70;99.90;;;;;;5070572;28;19908;-73
2022/02/15 04:14:23;;;;;;;;;;;3.60;99.90;;;;;;5070710;28;20363;-73
2022/02/15 04:16:49;;;;;;;;;;;3.50;99.90;;;;;;5071085;28;19916;-73
2022/02/15 04:19:14;;;;;;;;;;;3.60;99.90;;;;;;5070995;28;20300;-73
2022/02/15 04:21:40;;;;;;;;;;;3.50;99.90;;;;;;5070819;28;19999;-73
2022/02/15 04:24:05;;;;;;;;;;;3.60;99.90;;;;;;5070676;28;20357;-73
2022/02/15 04:26:31;;;;;;;;;;;3.60;99.90;;;;;;5070801;28;19916;-74
2022/02/15 04:28:56;;;;;;;;;;;3.60;99.90;;;;;;5071317;28;19962;-74
2022/02/15 04:31:22;;;;;;;;;;;3.70;99.90;;;;;;5070739;28;20274;-73
2022/02/15 04:33:48;;;;;;;;;;;3.60;99.90;;;;;;5070871;28;19992;-73
2022/02/15 04:36:13;;;;;;;;;;;3.70;99.90;;;;;;5070693;28;19916;-73
2022/02/15 04:38:39;;;;;;;;;;;3.90;99.90;;;;;;5070907;28;19909;-74
2022/02/15 04:41:04;;;;;;;;;;;3.90;99.90;;;;;;5070747;28;19919;-73
2022/02/15 04:43:30;;;;;;;;;;;3.90;99.90;;;;;;5075653;28;19908;-72
2022/02/15 04:45:55;;;;;;;;;;;3.90;99.90;;;;;;5075532;28;19995;-73
2022/02/15 04:48:21;;;;;;;;;;;3.90;99.90;;;;;;5074722;28;19992;-74
2022/02/15 04:50:46;;;;;;;;;;;4.10;99.90;;;;;;5074577;28;19908;-73
2022/02/15 04:53:12;;;;;;;;;;;4.00;99.90;;;;;;5074214;28;19915;-74
2022/02/15 04:55:37;;;;;;;;;;;4.00;99.90;;;;;;5073604;28;19935;-74
2022/02/15 04:58:03;;;;;;;;;;;3.90;99.90;;;;;;5063832;28;19912;-74
2022/02/15 05:00:29;;;;;;;;;;;4.00;99.90;;;;;;5072573;28;19912;-73
2022/02/15 05:02:54;;;;;;;;;;;4.10;99.90;;;;;;5074169;28;19913;-74
2022/02/15 05:05:20;;;;;;;;;;;4.00;99.90;;;;;;5072617;28;19912;-74
2022/02/15 05:07:45;;;;;;;;;;;4.10;99.90;;;;;;5074076;28;20377;-73
2022/02/15 05:10:11;;;;;;;;;;;4.20;99.90;;;;;;5073482;28;20366;-73
2022/02/15 05:12:37;;;;;;;;;;;4.00;99.90;;;;;;5074106;28;19909;-74
2022/02/15 05:15:09;;;;;;;;;;;3.90;99.90;;;;;;5073923;28;20343;-73
2022/02/15 05:17:36;;;;;;;;;;;3.90;99.90;;;;;;5074189;28;19920;-73
2022/02/15 05:20:02;;;;;;;;;;;3.90;99.90;;;;;;5073920;28;20419;-75
2022/02/15 05:22:27;;;;;;;;;;;4.00;99.90;;;;;;5073860;28;19947;-74
2022/02/15 05:24:53;;;;;;;;;;;4.10;99.90;;;;;;5073712;28;19931;-74
2022/02/15 05:27:18;;;;;;;;;;;4.10;99.90;;;;;;5073547;28;19959;-74
2022/02/15 05:29:44;;;;;;;;;;;4.00;99.90;;;;;;5073935;28;20348;-74
2022/02/15 05:32:10;;;;;;;;;;;4.00;99.90;;;;;;5073815;28;19909;-74
2022/02/15 05:34:36;;;;;;;;;;;4.00;99.90;;;;;;5073665;28;19915;-74
2022/02/15 05:37:01;;;;;;;;;;;4.00;99.90;;;;;;5073814;28;19908;-74
2022/02/15 05:39:27;;;;;;;;;;;4.00;99.90;;;;;;5069585;28;19916;-74
2022/02/15 05:41:52;;;;;;;;;;;4.10;99.90;;;;;;5071875;28;19935;-74
2022/02/15 05:44:17;;;;;;;;;;;4.00;99.90;;;;;;5073455;28;19916;-74
2022/02/15 05:46:43;;;;;;;;;;;4.10;99.90;;;;;;5074028;28;19912;-74
2022/02/15 05:49:08;;;;;;;;;;;4.00;99.90;;;;;;5074099;28;20353;-73
2022/02/15 05:51:34;;;;;;;;;;;4.00;99.90;;;;;;5073469;28;19912;-74
2022/02/15 05:53:59;;;;;;;;;;;3.90;99.90;;;;;;5074213;28;19909;-74
2022/02/15 05:56:25;;;;;;;;;;;4.00;99.90;;;;;;5073825;28;19984;-74
2022/02/15 05:58:50;;;;;;;;;;;4.00;99.90;;;;;;5073868;28;19909;-74
2022/02/15 06:01:17;;;;;;;;;;;4.00;99.90;;;;;;5073534;28;20526;-75
2022/02/15 06:06:26;;;;;;;;;;;4.00;99.90;;;;;;5067897;28;19920;-75
2022/02/15 06:08:52;;;;;;;;;;;4.10;99.90;;;;;;5072277;28;19908;-75
2022/02/15 06:11:18;;;;;;;;;;;4.00;99.90;;;;;;5072835;28;19912;-75
2022/02/15 06:13:43;;;;;;;;;;;4.00;99.90;;;;;;5073047;28;20392;-75
2022/02/15 06:16:09;;;;;;;;;;;3.90;99.90;;;;;;5073089;28;20284;-75
2022/02/15 06:18:34;;;;;;;;;;;4.00;99.90;;;;;;5073210;28;19912;-75
2022/02/15 06:21:00;;;;;;;;;;;4.00;99.90;;;;;;5073309;28;19909;-75
2022/02/15 06:23:25;;;;;;;;;;;3.90;99.90;;;;;;5072979;28;19995;-75
2022/02/15 06:25:51;;;;;;;;;;;3.80;99.90;;;;;;5073238;28;19912;-75
2022/02/15 06:28:16;;;;;;;;;;;4.00;99.90;;;;;;5073242;28;19912;-75
2022/02/15 06:30:42;;;;;;;;;;;4.00;99.90;;;;;;5073312;28;19954;-75
2022/02/15 06:33:07;;;;;;;;;;;4.00;99.90;;;;;;5073303;28;19995;-74
2022/02/15 06:35:33;;;;;;;;;;;3.90;99.90;;;;;;5073221;28;20392;-75
2022/02/15 06:37:58;;;;;;;;;;;4.00;99.90;;;;;;5073249;28;19908;-75
2022/02/15 06:40:24;;;;;;;;;;;4.00;99.90;;;;;;5072167;28;20042;-75
2022/02/15 06:42:49;;;;;;;;;;;3.90;99.90;;;;;;5072728;28;19955;-75
2022/02/15 06:45:15;;;;;;;;;;;4.00;99.90;;;;;;5072670;28;19908;-75
2022/02/15 06:47:41;;;;;;;;;;;4.00;99.90;;;;;;5072728;28;19920;-75
2022/02/15 06:50:07;;;;;;;;;;;4.10;99.90;;;;;;5072832;28;19912;-75
2022/02/15 06:52:33;;;;;;;;;;;4.00;99.90;;;;;;5072498;28;19912;-75
2022/02/15 06:54:58;;;;;;;;;;;4.00;99.90;;;;;;5072276;28;19966;-75
2022/02/15 06:57:23;;;;;;;;;;;4.00;99.90;;;;;;5072133;28;19912;-75
2022/02/15 06:59:52;;;;;;;;;;;4.00;99.90;;;;;;5072552;28;19923;-75
2022/02/15 07:02:20;;;;;;;;;;;4.00;99.90;;;;;;5072170;28;19916;-75
2022/02/15 07:04:46;;;;;;;;;;;3.90;99.90;;;;;;5071612;28;19917;-75
2022/02/15 07:07:13;;;;;;;;;;;3.80;99.90;;;;;;5072297;28;19939;-75
2022/02/15 07:09:38;;;;;;;;;;;3.70;99.90;;;;;;5069232;28;19912;-74
2022/02/15 07:12:06;;;;;;;;;;;3.70;99.90;;;;;;5067438;28;20475;-75
2022/02/15 07:14:31;;;;;;;;;;;3.60;99.90;;;;;;5072316;28;19909;-75
2022/02/15 07:16:57;;;;;;;;;;;3.70;99.90;;;;;;5071956;28;19924;-75
2022/02/15 07:19:22;;;;;;;;;;;3.70;99.90;;;;;;5073636;28;19909;-75
2022/02/15 07:21:49;;;;;;;;;;;3.80;99.90;;;;;;5068909;28;20335;-75
2022/02/15 07:24:16;;;;;;;;;;;3.80;99.90;;;;;;5071460;28;19916;-75
2022/02/15 07:26:42;;;;;;;;;;;3.90;99.90;;;;;;5077502;28;19919;-75
2022/02/15 07:29:07;;;;;;;;;;;3.90;99.90;;;;;;5072152;28;19908;-75
2022/02/15 07:31:33;;;;;;;;;;;3.90;99.90;;;;;;5071912;28;19909;-74
2022/02/15 07:33:58;;;;;;;;;;;3.90;99.90;;;;;;5072022;28;19958;-75
2022/02/15 07:36:24;;;;;;;;;;;3.90;99.90;;;;;;5066213;28;19913;-75
2022/02/15 07:38:49;;;;;;;;;;;3.80;99.90;;;;;;5072323;28;19908;-74
2022/02/15 07:41:15;;;;;;;;;;;3.80;99.90;;;;;;5066341;28;20392;-75
2022/02/15 07:43:40;;;;;;;;;;;3.80;99.90;;;;;;5071571;28;19912;-75
2022/02/15 07:46:06;;;;;;;;;;;3.90;99.90;;;;;;5072193;28;19912;-75
2022/02/15 07:48:32;;;;;;;;;;;4.00;99.90;;;;;;5072084;28;19916;-75
2022/02/15 07:50:57;;;;;;;;;;;4.10;99.90;;;;;;5071892;28;19909;-76
2022/02/15 07:53:22;;;;;;;;;;;4.20;99.90;;;;;;5066922;28;20293;-74
2022/02/15 07:55:48;;;;;;;;;;;4.30;99.90;;;;;;5070025;28;19996;-75
2022/02/15 07:58:14;;;;;;;;;;;4.40;99.90;;;;;;5062829;28;20519;-76
2022/02/15 08:00:39;;;;;;;;;;;4.30;99.90;;;;;;5064058;28;19962;-75
2022/02/15 08:03:05;;;;;;;;;;;4.30;99.90;;;;;;5069571;28;20389;-75
2022/02/15 08:05:31;;;;;;;;;;;4.30;99.90;;;;;;5063203;28;19931;-75
2022/02/15 08:07:57;;;;;;;;;;;4.30;99.90;;;;;;5066351;28;19999;-75
2022/02/15 08:10:23;;;;;;;;;;;4.40;99.90;;;;;;5069976;28;19931;-74
2022/02/15 08:12:57;;;;;;;;;;;4.40;99.90;;;;;;5070092;28;19908;-75
2022/02/15 08:15:33;;;;;;;;;;;4.50;99.90;;;;;;5071480;28;19962;-75
2022/02/15 08:17:59;;;;;;;;;;;4.50;99.90;;;;;;5069977;28;20011;-75
2022/02/15 08:20:25;;;;;;;;;;;4.50;99.90;;;;;;5067847;28;20366;-75
2022/02/15 08:22:51;;;;;;;;;;;4.50;99.90;;;;;;5064444;28;19991;-76
2022/02/15 08:25:17;;;;;;;;;;;4.50;99.90;;;;;;5065746;28;19916;-74
2022/02/15 08:27:42;;;;;;;;;;;4.50;99.90;;;;;;5069266;28;20258;-75
2022/02/15 08:30:08;;;;;;;;;;;4.50;99.90;;;;;;5071150;28;19970;-74
2022/02/15 08:32:34;;;;;;;;;;;4.50;99.90;;;;;;5059202;28;19916;-74
2022/02/15 08:35:00;;;;;;;;;;;4.60;99.90;;;;;;5065565;28;19920;-74
2022/02/15 08:37:25;;;;;;;;;;;4.60;99.90;;;;;;5068539;28;20007;-74
2022/02/15 08:39:51;;;;;;;;;;;4.70;99.90;;;;;;5071939;28;20373;-74
2022/02/15 08:42:16;;;;;;;;;;;4.80;99.90;;;;;;5074265;28;19912;-74
2022/02/15 08:44:43;;;;;;;;;;;4.90;99.90;;;;;;5072002;28;19912;-74
2022/02/15 08:47:09;;;;;;;;;;;5.30;99.90;;;;;;5071708;28;19913;-75
2022/02/15 08:49:38;;;;;;;;;;;5.90;99.90;;;;;;5071386;28;19913;-74
2022/02/15 08:52:04;;;;;;;;;;;6.10;99.90;;;;;;5071347;28;20296;-74
2022/02/15 08:54:29;;;;;;;;;;;6.00;99.90;;;;;;5071320;28;19908;-74
2022/02/15 08:56:55;;;;;;;;;;;5.90;99.90;;;;;;5069311;28;20365;-74
2022/02/15 08:59:23;;;;;;;;;;;5.60;99.90;;;;;;5071241;28;19955;-75
2022/02/15 09:01:48;;;;;;;;;;;5.60;99.90;;;;;;5071647;28;19921;-75
2022/02/15 09:04:15;;;;;;;;;;;5.50;99.90;;;;;;5076626;28;19912;-75
2022/02/15 09:06:41;;;;;;;;;;;5.70;99.90;;;;;;5071124;28;19912;-75
2022/02/15 09:09:08;;;;;;;;;;;5.60;99.90;;;;;;5071154;28;19912;-75
2022/02/15 09:11:33;;;;;;;;;;;5.60;99.90;;;;;;5073839;28;20011;-76
2022/02/15 09:13:59;;;;;;;;;;;5.70;99.90;;;;;;5076261;28;19987;-75
2022/02/15 09:16:24;;;;;;;;;;;5.70;99.90;;;;;;5070557;28;19920;-75
2022/02/15 09:18:50;;;;;;;;;;;5.80;99.90;;;;;;5073135;28;19913;-75
2022/02/15 09:21:16;;;;;;;;;;;6.00;99.90;;;;;;5072766;28;19953;-75
2022/02/15 09:23:41;;;;;;;;;;;6.20;99.90;;;;;;5070651;28;19913;-76
2022/02/15 09:26:09;;;;;;;;;;;7.70;99.90;;;;;;5073431;28;20394;-73
2022/02/15 09:28:35;;;;;;;;;;;10.00;99.90;;;;;;5065265;28;19939;-73
2022/02/15 09:31:01;;;;;;;;;;;10.10;99.90;;;;;;5076879;28;20368;-74
2022/02/15 09:33:26;;;;;;;;;;;9.20;99.90;;;;;;5073182;28;19912;-74
2022/02/15 09:35:52;;;;;;;;;;;7.90;99.90;;;;;;5075720;28;19971;-73
2022/02/15 09:38:17;;;;;;;;;;;7.80;99.90;;;;;;5073083;28;19912;-73
2022/02/15 09:40:43;;;;;;;;;;;7.30;99.90;;;;;;5073856;28;19908;-73
2022/02/15 09:43:12;;;;;;;;;;;6.70;99.90;;;;;;5073679;28;19934;-73
2022/02/15 09:45:37;;;;;;;;;;;6.90;99.90;;;;;;5073568;28;19970;-73
2022/02/15 09:48:03;;;;;;;;;;;7.10;99.90;;;;;;5073539;28;19916;-73
2022/02/15 09:50:32;;;;;;;;;;;6.90;99.90;;;;;;5073766;28;20419;-73
2022/02/15 09:52:58;;;;;;;;;;;6.70;99.90;;;;;;5073154;28;19909;-73
2022/02/15 09:55:24;;;;;;;;;;;6.60;99.90;;;;;;5072450;28;19963;-73
2022/02/15 09:57:50;;;;;;;;;;;6.30;99.90;;;;;;5078233;28;19936;-73
2022/02/15 10:00:18;;;;;;;;;;;6.40;99.90;;;;;;5073471;28;19915;-73
2022/02/15 10:02:44;;;;;;;;;;;7.20;99.90;;;;;;5070947;28;19916;-73
2022/02/15 10:05:13;;;;;;;;;;;8.10;99.90;;;;;;5067896;28;19909;-73
2022/02/15 10:07:49;;;;;;;;;;;9.40;99.90;;;;;;5070785;28;19913;-76
2022/02/15 10:10:26;;;;;;;;;;;9.10;99.90;;;;;;5076648;28;19920;-75
2022/02/15 10:13:03;;;;;;;;;;;10.40;99.90;;;;;;5051732;28;20358;-74
2022/02/15 10:15:29;;;;;;;;;;;13.70;96.80;;;;;;5065358;28;20137;-74
2022/02/15 10:18:07;;;;;;;;;;;14.40;92.10;;;;;;5072752;28;20218;-76
2022/02/15 10:20:33;;;;;;;;;;;15.60;88.70;;;;;;5073350;28;19915;-74
2022/02/15 10:23:14;;;;;;;;;;;14.30;86.90;;;;;;5072673;28;19912;-74
2022/02/15 10:25:40;;;;;;;;;;;13.70;87.80;;;;;;5072887;28;19909;-74
2022/02/15 10:28:15;;;;;;;;;;;10.10;93.00;;;;;;5073311;28;19934;-74
2022/02/15 10:30:49;;;;;;;;;;;8.70;96.00;;;;;;5072024;28;20335;-74
2022/02/15 10:33:16;;;;;;;;;;;8.70;97.60;;;;;;5072733;28;19912;-74
2022/02/15 10:35:58;;;;;;;;;;;8.00;97.20;;;;;;5068935;28;19919;-74
2022/02/15 10:38:28;;;;;;;;;;;7.20;99.40;;;;;;5068863;28;19915;-73
2022/02/15 10:40:57;;;;;;;;;;;7.50;99.90;;;;;;5073404;28;19909;-74
2022/02/15 10:43:24;;;;;;;;;;;7.40;99.80;;;;;;5070553;28;19995;-73
2022/02/15 10:45:50;;;;;;;;;;;7.20;99.70;;;;;;5074341;28;19909;-75
2022/02/15 10:48:15;;;;;;;;;;;6.80;99.90;;;;;;5072103;28;19919;-73
2022/02/15 10:50:41;;;;;;;;;;;6.70;99.90;;;;;;5072374;28;20300;-73
2022/02/15 10:53:07;;;;;;;;;;;6.60;99.90;;;;;;5072233;28;19916;-74
2022/02/15 10:55:33;;;;;;;;;;;6.70;99.90;;;;;;5072327;28;19966;-73
2022/02/15 10:58:00;;;;;;;;;;;6.50;99.90;;;;;;5072663;28;19908;-73
2022/02/15 11:00:26;;;;;;;;;;;6.50;99.80;;;;;;5070568;28;19921;-74
2022/02/15 11:02:53;;;;;;;;;;;6.60;99.80;;;;;;5068989;28;20175;-73
2022/02/15 11:05:19;;;;;;;;;;;7.10;99.90;;;;;;5071005;28;20277;-74
2022/02/15 11:07:45;;;;;;;;;;;7.30;99.90;;;;;;5075565;28;20354;-74
2022/02/15 11:10:11;;;;;;;;;;;7.10;99.40;;;;;;5065285;28;19908;-74
2022/02/15 11:12:43;;;;;;;;;;;7.00;99.90;;;;;;5072724;28;19909;-74
2022/02/15 11:15:10;;;;;;;;;;;6.90;99.90;;;;;;5072356;28;19909;-73
2022/02/15 11:17:35;;;;;;;;;;;6.70;99.90;;;;;;5072948;28;19923;-73
2022/02/15 11:20:03;;;;;;;;;;;6.60;99.90;;;;;;5072962;28;19908;-74
2022/02/15 11:22:28;;;;;;;;;;;6.80;99.90;;;;;;5072381;28;20284;-74
2022/02/15 11:24:54;;;;;;;;;;;6.90;99.90;;;;;;5072431;28;19909;-74
2022/02/15 11:27:21;;;;;;;;;;;7.10;99.90;;;;;;5072657;28;19917;-73
2022/02/15 11:29:49;;;;;;;;;;;7.10;99.90;;;;;;5064939;28;19909;-74
2022/02/15 11:32:21;;;;;;;;;;;7.00;99.40;;;;;;5071849;28;19909;-73
2022/02/15 11:34:47;;;;;;;;;;;7.20;99.90;;;;;;5071421;28;19916;-73
2022/02/15 11:37:17;;;;;;;;;;;7.40;99.90;;;;;;5071879;28;19916;-75
2022/02/15 11:39:43;;;;;;;;;;;7.20;99.50;;;;;;5071570;28;19908;-73
2022/02/15 11:42:15;;;;;;;;;;;7.20;99.20;;;;;;5071160;28;19908;-73
2022/02/15 11:44:42;;;;;;;;;;;7.30;99.20;;;;;;5071805;28;20373;-73
2022/02/15 11:47:19;;;;;;;;;;;7.30;98.70;;;;;;5072655;28;19912;-74
2022/02/15 11:49:58;;;;;;;;;;;7.70;98.40;;;;;;5072356;28;20195;-74
2022/02/15 11:52:24;;;;;;;;;;;8.30;98.90;;;;;;5072943;28;19909;-74
2022/02/15 11:54:49;;;;;;;;;;;8.20;97.20;;;;;;5072114;28;20357;-74
2022/02/15 11:57:15;;;;;;;;;;;7.70;98.00;;;;;;5072449;28;19909;-73
2022/02/15 11:59:41;;;;;;;;;;;7.40;98.70;;;;;;5072968;28;20389;-73
2022/02/15 12:02:07;;;;;;;;;;;7.20;97.60;;;;;;5070011;28;19916;-73
2022/02/15 12:04:33;;;;;;;;;;;7.00;98.70;;;;;;5071100;28;20362;-73
2022/02/15 12:06:59;;;;;;;;;;;6.90;97.90;;;;;;5068011;28;20365;-73
2022/02/15 12:09:26;;;;;;;;;;;6.80;97.90;;;;;;5071005;28;20356;-73
2022/02/15 12:11:52;;;;;;;;;;;7.10;98.80;;;;;;5069841;28;19912;-74
2022/02/15 12:14:19;;;;;;;;;;;7.50;98.10;;;;;;5071116;28;20012;-75
2022/02/15 12:16:47;;;;;;;;;;;7.60;97.30;;;;;;5071651;28;20097;-74
2022/02/15 12:19:22;;;;;;;;;;;7.80;96.70;;;;;;5071440;28;20360;-74
2022/02/15 12:21:48;;;;;;;;;;;7.70;97.50;;;;;;5068379;28;19908;-76
2022/02/15 12:24:14;;;;;;;;;;;7.60;97.20;;;;;;5068148;28;19916;-73
2022/02/15 12:26:40;;;;;;;;;;;7.60;96.70;;;;;;5071190;28;19944;-74
2022/02/15 12:29:06;;;;;;;;;;;7.20;96.40;;;;;;5071269;28;19970;-73
2022/02/15 12:31:32;;;;;;;;;;;7.20;96.60;;;;;;5068612;28;20324;-74
2022/02/15 12:33:57;;;;;;;;;;;7.20;97.10;;;;;;5069475;28;19912;-74
2022/02/15 12:36:23;;;;;;;;;;;7.20;97.10;;;;;;5070923;28;19999;-74
2022/02/15 12:38:51;;;;;;;;;;;7.30;97.90;;;;;;5071116;28;19912;-74
2022/02/15 12:41:17;;;;;;;;;;;7.10;96.70;;;;;;5070662;28;19908;-75
2022/02/15 12:43:43;;;;;;;;;;;7.00;97.30;;;;;;5069369;28;20053;-74
2022/02/15 12:46:09;;;;;;;;;;;7.20;98.00;;;;;;5070829;28;19915;-75
2022/02/15 12:48:34;;;;;;;;;;;7.20;98.30;;;;;;5069395;28;19912;-75
2022/02/15 12:51:00;;;;;;;;;;;7.00;98.50;;;;;;5069481;28;20377;-74
2022/02/15 12:53:25;;;;;;;;;;;7.00;98.60;;;;;;5071111;28;20479;-74
2022/02/15 12:55:52;;;;;;;;;;;6.80;98.50;;;;;;5070688;28;19909;-74
2022/02/15 12:58:21;;;;;;;;;;;6.70;98.90;;;;;;5071232;28;19912;-74
2022/02/15 13:00:46;;;;;;;;;;;6.70;99.20;;;;;;5069754;28;20289;-75
2022/02/15 13:03:19;;;;;;;;;;;6.90;99.90;;;;;;5074770;28;19912;-75
2022/02/15 13:05:44;;;;;;;;;;;7.00;99.20;;;;;;5076392;28;19909;-74
2022/02/15 13:08:17;;;;;;;;;;;6.90;99.90;;;;;;5084293;28;20027;-74
2022/02/15 13:10:53;;;;;;;;;;;7.10;99.90;;;;;;5076101;28;20381;-74
2022/02/15 13:13:23;;;;;;;;;;;7.10;99.90;;;;;;5075433;28;19909;-75
2022/02/15 13:15:55;;;;;;;;;;;7.00;99.60;;;;;;5075250;28;19916;-74
2022/02/15 13:18:21;;;;;;;;;;;7.00;99.10;;;;;;5072415;28;19916;-74
2022/02/15 13:20:50;;;;;;;;;;;7.00;99.90;;;;;;5061555;28;19909;-74
2022/02/15 13:23:15;;;;;;;;;;;7.00;99.50;;;;;;5074816;28;19962;-73
2022/02/15 13:25:43;;;;;;;;;;;7.10;99.90;;;;;;5074973;28;19908;-74
2022/02/15 13:28:08;;;;;;;;;;;7.20;99.50;;;;;;5074737;28;19912;-74
2022/02/15 13:30:34;;;;;;;;;;;7.20;99.90;;;;;;5066814;28;19919;-74
2022/02/15 13:32:59;;;;;;;;;;;6.90;99.80;;;;;;5064817;28;20289;-73
2022/02/15 13:35:25;;;;;;;;;;;6.80;99.90;;;;;;5079011;28;20388;-74
2022/02/15 13:37:56;;;;;;;;;;;6.50;99.90;;;;;;5073475;28;20315;-74
2022/02/15 13:40:21;;;;;;;;;;;6.50;99.90;;;;;;5069627;28;19908;-75
2022/02/15 13:42:47;;;;;;;;;;;6.50;99.90;;;;;;5074337;28;20297;-74
2022/02/15 13:45:12;;;;;;;;;;;6.70;99.90;;;;;;5072353;28;20337;-74
2022/02/15 13:47:39;;;;;;;;;;;6.80;99.90;;;;;;5062691;28;19923;-73
2022/02/15 13:50:05;;;;;;;;;;;6.80;99.10;;;;;;5070063;28;19919;-74
2022/02/15 13:52:35;;;;;;;;;;;7.00;99.90;;;;;;5073952;28;19908;-74
2022/02/15 13:55:01;;;;;;;;;;;7.20;99.00;;;;;;5072665;28;19916;-74
2022/02/15 13:57:26;;;;;;;;;;;7.50;98.80;;;;;;5073825;28;19908;-74
2022/02/15 13:59:52;;;;;;;;;;;7.80;98.50;;;;;;5073829;28;20281;-75
2022/02/15 14:02:17;;;;;;;;;;;7.80;98.50;;;;;;5070817;28;19916;-75
2022/02/15 14:04:43;;;;;;;;;;;7.90;98.40;;;;;;5070907;28;19909;-75
2022/02/15 14:07:08;;;;;;;;;;;7.70;98.20;;;;;;5071099;28;20334;-74
2022/02/15 14:09:36;;;;;;;;;;;7.60;98.00;;;;;;5074912;28;19919;-74
2022/02/15 14:12:02;;;;;;;;;;;7.40;98.00;;;;;;5073762;28;20049;-75
2022/02/15 14:14:27;;;;;;;;;;;7.00;98.20;;;;;;5073599;28;19962;-74
2022/02/15 14:17:37;;;;;;;;;;;6.80;98.60;;;;;;5073716;28;19916;-74
2022/02/15 14:19:41;;;;;;;;;;;6.80;99.00;;;;;;5074225;28;19908;-75
2022/02/15 14:22:07;;;;;;;;;;;7.20;98.20;;;;;;5073425;28;19924;-73
2022/02/15 14:24:32;;;;;;;;;;;7.00;98.40;;;;;;5073625;28;19919;-75
2022/02/15 14:26:58;;;;;;;;;;;7.00;98.60;;;;;;5072272;28;19916;-75
2022/02/15 14:29:23;;;;;;;;;;;7.00;98.50;;;;;;5073612;28;20011;-75
2022/02/15 14:31:49;;;;;;;;;;;6.90;98.90;;;;;;5068845;28;19951;-73